sensor_id;sensor_type;location;lat;lon;timestamp;pressure;altitude;pressure_sealevel;temperature
79089;BMP280;68489;50.286;9.452;2023-11-19T00:00:39;97042.19;;;6.67
79089;BMP280;68489;50.286;9.452;2023-11-19T00:03:04;97036.84;;;6.70
79089;BMP280;68489;50.286;9.452;2023-11-19T00:05:30;97038.66;;;6.74
79089;BMP280;68489;50.286;9.452;2023-11-19T00:07:56;97040.16;;;6.75
79089;BMP280;68489;50.286;9.452;2023-11-19T00:10:21;97034.75;;;6.78
79089;BMP280;68489;50.286;9.452;2023-11-19T00:12:49;97020.75;;;6.81
79089;BMP280;68489;50.286;9.452;2023-11-19T00:15:15;97034.22;;;6.87
79089;BMP280;68489;50.286;9.452;2023-11-19T00:17:41;97039.72;;;6.92
79089;BMP280;68489;50.286;9.452;2023-11-19T00:20:11;97033.94;;;6.98
79089;BMP280;68489;50.286;9.452;2023-11-19T00:22:36;97026.22;;;7.03
79089;BMP280;68489;50.286;9.452;2023-11-19T00:25:02;97005.41;;;7.05
79089;BMP280;68489;50.286;9.452;2023-11-19T00:27:28;97013.25;;;7.09
79089;BMP280;68489;50.286;9.452;2023-11-19T00:29:53;97010.56;;;7.12
79089;BMP280;68489;50.286;9.452;2023-11-19T00:32:19;96999.53;;;7.14
79089;BMP280;68489;50.286;9.452;2023-11-19T00:34:44;97006.22;;;7.18
79089;BMP280;68489;50.286;9.452;2023-11-19T00:37:10;96991.84;;;7.19
79089;BMP280;68489;50.286;9.452;2023-11-19T00:39:35;96993.25;;;7.24
79089;BMP280;68489;50.286;9.452;2023-11-19T00:42:00;97001.50;;;7.26
79089;BMP280;68489;50.286;9.452;2023-11-19T00:44:26;96991.56;;;7.30
79089;BMP280;68489;50.286;9.452;2023-11-19T00:46:51;96997.19;;;7.32
79089;BMP280;68489;50.286;9.452;2023-11-19T00:49:16;96999.75;;;7.36
79089;BMP280;68489;50.286;9.452;2023-11-19T00:51:42;96992.44;;;7.40
79089;BMP280;68489;50.286;9.452;2023-11-19T00:54:07;96990.44;;;7.44
79089;BMP280;68489;50.286;9.452;2023-11-19T00:56:32;97004.41;;;7.44
79089;BMP280;68489;50.286;9.452;2023-11-19T00:58:57;97004.34;;;7.48
79089;BMP280;68489;50.286;9.452;2023-11-19T01:01:25;96997.88;;;7.49
79089;BMP280;68489;50.286;9.452;2023-11-19T01:03:50;97004.22;;;7.52
79089;BMP280;68489;50.286;9.452;2023-11-19T01:06:26;96986.03;;;7.54
79089;BMP280;68489;50.286;9.452;2023-11-19T01:08:52;96977.66;;;7.55
79089;BMP280;68489;50.286;9.452;2023-11-19T01:11:21;96977.16;;;7.60
79089;BMP280;68489;50.286;9.452;2023-11-19T01:13:47;96967.00;;;7.59
79089;BMP280;68489;50.286;9.452;2023-11-19T01:16:12;96957.78;;;7.63
79089;BMP280;68489;50.286;9.452;2023-11-19T01:18:38;96952.09;;;7.65
79089;BMP280;68489;50.286;9.452;2023-11-19T01:21:04;96956.88;;;7.70
79089;BMP280;68489;50.286;9.452;2023-11-19T01:23:29;96955.56;;;7.75
79089;BMP280;68489;50.286;9.452;2023-11-19T01:25:55;96947.31;;;7.73
79089;BMP280;68489;50.286;9.452;2023-11-19T01:28:20;96941.84;;;7.80
79089;BMP280;68489;50.286;9.452;2023-11-19T01:30:45;96946.78;;;7.78
79089;BMP280;68489;50.286;9.452;2023-11-19T01:33:11;96941.00;;;7.83
79089;BMP280;68489;50.286;9.452;2023-11-19T01:35:36;96934.81;;;7.86
79089;BMP280;68489;50.286;9.452;2023-11-19T01:38:01;96947.66;;;7.87
79089;BMP280;68489;50.286;9.452;2023-11-19T01:40:26;96952.22;;;7.87
79089;BMP280;68489;50.286;9.452;2023-11-19T01:42:52;96943.75;;;7.92
79089;BMP280;68489;50.286;9.452;2023-11-19T01:45:24;96929.34;;;7.93
79089;BMP280;68489;50.286;9.452;2023-11-19T01:47:51;96938.78;;;7.94
79089;BMP280;68489;50.286;9.452;2023-11-19T01:50:16;96935.69;;;7.96
79089;BMP280;68489;50.286;9.452;2023-11-19T01:52:42;96944.25;;;8.00
79089;BMP280;68489;50.286;9.452;2023-11-19T01:55:10;96941.53;;;8.03
79089;BMP280;68489;50.286;9.452;2023-11-19T01:57:36;96933.16;;;8.05
79089;BMP280;68489;50.286;9.452;2023-11-19T02:00:03;96926.59;;;8.09
79089;BMP280;68489;50.286;9.452;2023-11-19T02:02:29;96925.00;;;8.12
79089;BMP280;68489;50.286;9.452;2023-11-19T02:04:55;96912.16;;;8.10
79089;BMP280;68489;50.286;9.452;2023-11-19T02:07:21;96914.41;;;8.12
79089;BMP280;68489;50.286;9.452;2023-11-19T02:09:46;96908.25;;;8.15
79089;BMP280;68489;50.286;9.452;2023-11-19T02:12:12;96901.78;;;8.16
79089;BMP280;68489;50.286;9.452;2023-11-19T02:14:37;96898.41;;;8.15
79089;BMP280;68489;50.286;9.452;2023-11-19T02:17:02;96881.63;;;8.19
79089;BMP280;68489;50.286;9.452;2023-11-19T02:19:28;96866.09;;;8.21
79089;BMP280;68489;50.286;9.452;2023-11-19T02:21:54;96867.88;;;8.24
79089;BMP280;68489;50.286;9.452;2023-11-19T02:24:22;96859.94;;;8.24
79089;BMP280;68489;50.286;9.452;2023-11-19T02:26:52;96865.84;;;8.28
79089;BMP280;68489;50.286;9.452;2023-11-19T02:29:21;96857.06;;;8.31
79089;BMP280;68489;50.286;9.452;2023-11-19T02:31:47;96849.72;;;8.35
79089;BMP280;68489;50.286;9.452;2023-11-19T02:34:12;96855.03;;;8.35
79089;BMP280;68489;50.286;9.452;2023-11-19T02:36:38;96844.75;;;8.37
79089;BMP280;68489;50.286;9.452;2023-11-19T02:39:03;96846.53;;;8.40
79089;BMP280;68489;50.286;9.452;2023-11-19T02:41:28;96857.44;;;8.42
79089;BMP280;68489;50.286;9.452;2023-11-19T02:43:54;96835.50;;;8.41
79089;BMP280;68489;50.286;9.452;2023-11-19T02:46:19;96837.00;;;8.43
79089;BMP280;68489;50.286;9.452;2023-11-19T02:48:45;96833.06;;;8.47
79089;BMP280;68489;50.286;9.452;2023-11-19T02:51:11;96833.34;;;8.49
79089;BMP280;68489;50.286;9.452;2023-11-19T02:53:37;96826.78;;;8.54
79089;BMP280;68489;50.286;9.452;2023-11-19T02:56:03;96830.91;;;8.55
79089;BMP280;68489;50.286;9.452;2023-11-19T02:58:44;96833.41;;;8.58
79089;BMP280;68489;50.286;9.452;2023-11-19T03:01:10;96841.38;;;8.58
79089;BMP280;68489;50.286;9.452;2023-11-19T03:03:44;96845.81;;;8.61
79089;BMP280;68489;50.286;9.452;2023-11-19T03:06:14;96841.25;;;8.62
79089;BMP280;68489;50.286;9.452;2023-11-19T03:08:39;96836.16;;;8.68
79089;BMP280;68489;50.286;9.452;2023-11-19T03:11:04;96817.91;;;8.70
79089;BMP280;68489;50.286;9.452;2023-11-19T03:13:30;96815.97;;;8.70
79089;BMP280;68489;50.286;9.452;2023-11-19T03:15:55;96811.75;;;8.73
79089;BMP280;68489;50.286;9.452;2023-11-19T03:18:21;96806.44;;;8.73
79089;BMP280;68489;50.286;9.452;2023-11-19T03:20:46;96809.69;;;8.77
79089;BMP280;68489;50.286;9.452;2023-11-19T03:23:12;96819.97;;;8.75
79089;BMP280;68489;50.286;9.452;2023-11-19T03:25:37;96819.16;;;8.78
79089;BMP280;68489;50.286;9.452;2023-11-19T03:28:03;96813.69;;;8.81
79089;BMP280;68489;50.286;9.452;2023-11-19T03:30:29;96806.47;;;8.82
79089;BMP280;68489;50.286;9.452;2023-11-19T03:32:55;96792.34;;;8.85
79089;BMP280;68489;50.286;9.452;2023-11-19T03:35:21;96787.50;;;8.83
79089;BMP280;68489;50.286;9.452;2023-11-19T03:37:46;96792.22;;;8.88
79089;BMP280;68489;50.286;9.452;2023-11-19T03:40:11;96787.97;;;8.91
79089;BMP280;68489;50.286;9.452;2023-11-19T03:42:37;96778.94;;;8.88
79089;BMP280;68489;50.286;9.452;2023-11-19T03:45:02;96786.06;;;8.92
79089;BMP280;68489;50.286;9.452;2023-11-19T03:47:31;96774.28;;;8.93
79089;BMP280;68489;50.286;9.452;2023-11-19T03:49:56;96781.78;;;8.94
79089;BMP280;68489;50.286;9.452;2023-11-19T03:52:21;96785.50;;;8.97
79089;BMP280;68489;50.286;9.452;2023-11-19T03:54:47;96789.16;;;8.99
79089;BMP280;68489;50.286;9.452;2023-11-19T03:57:12;96792.16;;;9.01
79089;BMP280;68489;50.286;9.452;2023-11-19T03:59:38;96795.53;;;9.02
79089;BMP280;68489;50.286;9.452;2023-11-19T04:02:04;96786.09;;;9.01
79089;BMP280;68489;50.286;9.452;2023-11-19T04:04:29;96776.09;;;9.05
79089;BMP280;68489;50.286;9.452;2023-11-19T04:06:55;96773.91;;;9.03
79089;BMP280;68489;50.286;9.452;2023-11-19T04:09:20;96780.53;;;9.08
79089;BMP280;68489;50.286;9.452;2023-11-19T04:11:45;96780.09;;;9.09
79089;BMP280;68489;50.286;9.452;2023-11-19T04:14:12;96793.66;;;9.11
79089;BMP280;68489;50.286;9.452;2023-11-19T04:16:38;96788.56;;;9.17
79089;BMP280;68489;50.286;9.452;2023-11-19T04:19:03;96788.97;;;9.16
79089;BMP280;68489;50.286;9.452;2023-11-19T04:21:29;96782.66;;;9.22
79089;BMP280;68489;50.286;9.452;2023-11-19T04:23:54;96781.06;;;9.25
79089;BMP280;68489;50.286;9.452;2023-11-19T04:26:19;96778.84;;;9.23
79089;BMP280;68489;50.286;9.452;2023-11-19T04:28:44;96773.53;;;9.23
79089;BMP280;68489;50.286;9.452;2023-11-19T04:31:10;96771.19;;;9.25
79089;BMP280;68489;50.286;9.452;2023-11-19T04:33:35;96770.00;;;9.26
79089;BMP280;68489;50.286;9.452;2023-11-19T04:36:00;96772.94;;;9.28
79089;BMP280;68489;50.286;9.452;2023-11-19T04:38:25;96771.03;;;9.29
79089;BMP280;68489;50.286;9.452;2023-11-19T04:40:52;96766.03;;;9.31
79089;BMP280;68489;50.286;9.452;2023-11-19T04:43:17;96757.63;;;9.32
79089;BMP280;68489;50.286;9.452;2023-11-19T04:45:42;96760.59;;;9.34
79089;BMP280;68489;50.286;9.452;2023-11-19T04:48:07;96761.34;;;9.35
79089;BMP280;68489;50.286;9.452;2023-11-19T04:50:34;96757.53;;;9.36
79089;BMP280;68489;50.286;9.452;2023-11-19T04:52:59;96755.88;;;9.38
79089;BMP280;68489;50.286;9.452;2023-11-19T04:55:25;96764.59;;;9.39
79089;BMP280;68489;50.286;9.452;2023-11-19T04:57:50;96756.50;;;9.43
79089;BMP280;68489;50.286;9.452;2023-11-19T05:00:15;96761.78;;;9.43
79089;BMP280;68489;50.286;9.452;2023-11-19T05:02:40;96771.50;;;9.46
79089;BMP280;68489;50.286;9.452;2023-11-19T05:05:06;96768.72;;;9.49
79089;BMP280;68489;50.286;9.452;2023-11-19T05:07:31;96760.75;;;9.49
79089;BMP280;68489;50.286;9.452;2023-11-19T05:09:56;96776.13;;;9.54
79089;BMP280;68489;50.286;9.452;2023-11-19T05:12:23;96766.97;;;9.55
79089;BMP280;68489;50.286;9.452;2023-11-19T05:14:48;96758.56;;;9.57
79089;BMP280;68489;50.286;9.452;2023-11-19T05:17:17;96762.25;;;9.59
79089;BMP280;68489;50.286;9.452;2023-11-19T05:19:43;96761.53;;;9.59
79089;BMP280;68489;50.286;9.452;2023-11-19T05:22:08;96747.81;;;9.60
79089;BMP280;68489;50.286;9.452;2023-11-19T05:24:34;96764.03;;;9.62
79089;BMP280;68489;50.286;9.452;2023-11-19T05:27:01;96750.31;;;9.64
79089;BMP280;68489;50.286;9.452;2023-11-19T05:29:27;96747.09;;;9.69
79089;BMP280;68489;50.286;9.452;2023-11-19T05:31:52;96754.31;;;9.69
79089;BMP280;68489;50.286;9.452;2023-11-19T05:34:17;96762.28;;;9.69
79089;BMP280;68489;50.286;9.452;2023-11-19T05:36:43;96757.09;;;9.74
79089;BMP280;68489;50.286;9.452;2023-11-19T05:39:08;96779.09;;;9.75
79089;BMP280;68489;50.286;9.452;2023-11-19T05:41:34;96767.63;;;9.78
79089;BMP280;68489;50.286;9.452;2023-11-19T05:43:59;96760.06;;;9.76
79089;BMP280;68489;50.286;9.452;2023-11-19T05:46:24;96763.03;;;9.78
79089;BMP280;68489;50.286;9.452;2023-11-19T05:48:52;96744.75;;;9.80
79089;BMP280;68489;50.286;9.452;2023-11-19T05:51:17;96745.31;;;9.75
79089;BMP280;68489;50.286;9.452;2023-11-19T05:53:43;96773.66;;;9.78
79089;BMP280;68489;50.286;9.452;2023-11-19T05:56:09;96762.63;;;9.80
79089;BMP280;68489;50.286;9.452;2023-11-19T05:58:34;96750.31;;;9.82
79089;BMP280;68489;50.286;9.452;2023-11-19T06:01:01;96741.50;;;9.85
79089;BMP280;68489;50.286;9.452;2023-11-19T06:03:26;96748.28;;;9.86
79089;BMP280;68489;50.286;9.452;2023-11-19T06:05:52;96751.25;;;9.88
79089;BMP280;68489;50.286;9.452;2023-11-19T06:08:17;96752.00;;;9.89
79089;BMP280;68489;50.286;9.452;2023-11-19T06:10:43;96737.81;;;9.92
79089;BMP280;68489;50.286;9.452;2023-11-19T06:13:11;96751.53;;;9.91
79089;BMP280;68489;50.286;9.452;2023-11-19T06:15:37;96760.41;;;9.97
79089;BMP280;68489;50.286;9.452;2023-11-19T06:18:02;96754.91;;;10.00
79089;BMP280;68489;50.286;9.452;2023-11-19T06:20:32;96755.66;;;10.01
79089;BMP280;68489;50.286;9.452;2023-11-19T06:22:58;96752.25;;;10.00
79089;BMP280;68489;50.286;9.452;2023-11-19T06:25:24;96761.41;;;9.99
79089;BMP280;68489;50.286;9.452;2023-11-19T06:27:50;96761.28;;;10.03
79089;BMP280;68489;50.286;9.452;2023-11-19T06:30:15;96763.78;;;10.06
79089;BMP280;68489;50.286;9.452;2023-11-19T06:32:40;96761.59;;;10.05
79089;BMP280;68489;50.286;9.452;2023-11-19T06:35:06;96752.44;;;10.06
79089;BMP280;68489;50.286;9.452;2023-11-19T06:37:31;96772.03;;;10.08
79089;BMP280;68489;50.286;9.452;2023-11-19T06:39:56;96768.06;;;10.04
79089;BMP280;68489;50.286;9.452;2023-11-19T06:42:21;96771.31;;;10.08
79089;BMP280;68489;50.286;9.452;2023-11-19T06:44:47;96776.88;;;10.10
79089;BMP280;68489;50.286;9.452;2023-11-19T06:47:12;96769.69;;;10.10
79089;BMP280;68489;50.286;9.452;2023-11-19T06:49:37;96779.13;;;10.11
79089;BMP280;68489;50.286;9.452;2023-11-19T06:52:03;96781.03;;;10.11
79089;BMP280;68489;50.286;9.452;2023-11-19T06:54:29;96780.91;;;10.15
79089;BMP280;68489;50.286;9.452;2023-11-19T06:56:54;96794.00;;;10.18
79089;BMP280;68489;50.286;9.452;2023-11-19T06:59:20;96791.53;;;10.15
79089;BMP280;68489;50.286;9.452;2023-11-19T07:01:46;96777.81;;;10.16
79089;BMP280;68489;50.286;9.452;2023-11-19T07:04:11;96794.00;;;10.18
79089;BMP280;68489;50.286;9.452;2023-11-19T07:06:37;96791.34;;;10.18
79089;BMP280;68489;50.286;9.452;2023-11-19T07:09:03;96784.31;;;10.24
79089;BMP280;68489;50.286;9.452;2023-11-19T07:11:38;96796.69;;;10.27
79089;BMP280;68489;50.286;9.452;2023-11-19T07:14:04;96792.53;;;10.26
79089;BMP280;68489;50.286;9.452;2023-11-19T07:16:30;96796.53;;;10.31
79089;BMP280;68489;50.286;9.452;2023-11-19T07:18:55;96791.66;;;10.29
79089;BMP280;68489;50.286;9.452;2023-11-19T07:21:21;96796.97;;;10.29
79089;BMP280;68489;50.286;9.452;2023-11-19T07:23:46;96803.31;;;10.32
79089;BMP280;68489;50.286;9.452;2023-11-19T07:26:12;96796.38;;;10.34
79089;BMP280;68489;50.286;9.452;2023-11-19T07:28:37;96806.25;;;10.34
79089;BMP280;68489;50.286;9.452;2023-11-19T07:31:05;96805.84;;;10.35
79089;BMP280;68489;50.286;9.452;2023-11-19T07:33:32;96806.72;;;10.42
79089;BMP280;68489;50.286;9.452;2023-11-19T07:35:58;96810.09;;;10.42
79089;BMP280;68489;50.286;9.452;2023-11-19T07:38:23;96813.78;;;10.45
79089;BMP280;68489;50.286;9.452;2023-11-19T07:40:48;96818.22;;;10.48
79089;BMP280;68489;50.286;9.452;2023-11-19T07:43:13;96819.69;;;10.49
79089;BMP280;68489;50.286;9.452;2023-11-19T07:45:39;96818.03;;;10.51
79089;BMP280;68489;50.286;9.452;2023-11-19T07:48:04;96821.91;;;10.50
79089;BMP280;68489;50.286;9.452;2023-11-19T07:50:31;96824.13;;;10.52
79089;BMP280;68489;50.286;9.452;2023-11-19T07:52:56;96823.38;;;10.42
79089;BMP280;68489;50.286;9.452;2023-11-19T07:55:22;96835.06;;;10.45
79089;BMP280;68489;50.286;9.452;2023-11-19T07:57:47;96828.69;;;10.51
79089;BMP280;68489;50.286;9.452;2023-11-19T08:00:14;96834.31;;;10.53
79089;BMP280;68489;50.286;9.452;2023-11-19T08:02:39;96830.75;;;10.56
79089;BMP280;68489;50.286;9.452;2023-11-19T08:05:05;96829.59;;;10.57
79089;BMP280;68489;50.286;9.452;2023-11-19T08:07:31;96836.38;;;10.58
79089;BMP280;68489;50.286;9.452;2023-11-19T08:09:56;96824.84;;;10.61
79089;BMP280;68489;50.286;9.452;2023-11-19T08:12:21;96825.25;;;10.60
79089;BMP280;68489;50.286;9.452;2023-11-19T08:14:47;96833.13;;;10.63
79089;BMP280;68489;50.286;9.452;2023-11-19T08:17:12;96828.84;;;10.57
79089;BMP280;68489;50.286;9.452;2023-11-19T08:19:37;96835.16;;;10.59
79089;BMP280;68489;50.286;9.452;2023-11-19T08:22:03;96835.16;;;10.59
79089;BMP280;68489;50.286;9.452;2023-11-19T08:24:28;96830.88;;;10.62
79089;BMP280;68489;50.286;9.452;2023-11-19T08:26:53;96835.34;;;10.56
79089;BMP280;68489;50.286;9.452;2023-11-19T08:29:19;96827.34;;;10.65
79089;BMP280;68489;50.286;9.452;2023-11-19T08:31:44;96833.44;;;10.66
79089;BMP280;68489;50.286;9.452;2023-11-19T08:34:11;96835.91;;;10.69
79089;BMP280;68489;50.286;9.452;2023-11-19T08:36:37;96829.53;;;10.76
79089;BMP280;68489;50.286;9.452;2023-11-19T08:39:03;96830.00;;;10.74
79089;BMP280;68489;50.286;9.452;2023-11-19T08:41:28;96830.69;;;10.84
79089;BMP280;68489;50.286;9.452;2023-11-19T08:43:53;96836.50;;;10.82
79089;BMP280;68489;50.286;9.452;2023-11-19T08:46:18;96820.78;;;10.94
79089;BMP280;68489;50.286;9.452;2023-11-19T08:48:44;96820.31;;;10.95
79089;BMP280;68489;50.286;9.452;2023-11-19T08:51:09;96822.25;;;10.95
79089;BMP280;68489;50.286;9.452;2023-11-19T08:53:34;96825.78;;;11.01
79089;BMP280;68489;50.286;9.452;2023-11-19T08:56:00;96842.66;;;10.98
79089;BMP280;68489;50.286;9.452;2023-11-19T08:58:27;96843.22;;;11.02
79089;BMP280;68489;50.286;9.452;2023-11-19T09:00:53;96844.22;;;11.13
79089;BMP280;68489;50.286;9.452;2023-11-19T09:03:18;96845.69;;;11.15
79089;BMP280;68489;50.286;9.452;2023-11-19T09:05:43;96841.09;;;11.15
79089;BMP280;68489;50.286;9.452;2023-11-19T09:08:08;96839.31;;;11.21
79089;BMP280;68489;50.286;9.452;2023-11-19T09:10:34;96839.88;;;11.25
79089;BMP280;68489;50.286;9.452;2023-11-19T09:12:59;96840.03;;;11.31
79089;BMP280;68489;50.286;9.452;2023-11-19T09:15:24;96843.13;;;11.29
79089;BMP280;68489;50.286;9.452;2023-11-19T09:17:49;96845.66;;;11.24
79089;BMP280;68489;50.286;9.452;2023-11-19T09:20:15;96836.31;;;11.28
79089;BMP280;68489;50.286;9.452;2023-11-19T09:22:41;96845.19;;;11.25
79089;BMP280;68489;50.286;9.452;2023-11-19T09:25:07;96838.72;;;11.17
79089;BMP280;68489;50.286;9.452;2023-11-19T09:27:32;96848.81;;;11.13
79089;BMP280;68489;50.286;9.452;2023-11-19T09:29:57;96855.31;;;11.12
79089;BMP280;68489;50.286;9.452;2023-11-19T09:32:24;96845.66;;;11.24
79089;BMP280;68489;50.286;9.452;2023-11-19T09:34:49;96848.97;;;11.43
79089;BMP280;68489;50.286;9.452;2023-11-19T09:37:14;96848.84;;;11.37
79089;BMP280;68489;50.286;9.452;2023-11-19T09:39:39;96849.13;;;11.39
79089;BMP280;68489;50.286;9.452;2023-11-19T09:42:09;96866.75;;;11.36
79089;BMP280;68489;50.286;9.452;2023-11-19T09:44:34;96860.50;;;11.39
79089;BMP280;68489;50.286;9.452;2023-11-19T09:47:01;96848.84;;;11.37
79089;BMP280;68489;50.286;9.452;2023-11-19T09:49:26;96851.38;;;11.31
79089;BMP280;68489;50.286;9.452;2023-11-19T09:51:52;96850.47;;;11.34
79089;BMP280;68489;50.286;9.452;2023-11-19T09:54:18;96848.47;;;11.29
79089;BMP280;68489;50.286;9.452;2023-11-19T09:56:43;96848.59;;;11.35
79089;BMP280;68489;50.286;9.452;2023-11-19T09:59:08;96857.06;;;11.48
79089;BMP280;68489;50.286;9.452;2023-11-19T10:01:37;96856.47;;;11.53
79089;BMP280;68489;50.286;9.452;2023-11-19T10:04:02;96858.59;;;11.40
79089;BMP280;68489;50.286;9.452;2023-11-19T10:06:28;96864.19;;;11.51
79089;BMP280;68489;50.286;9.452;2023-11-19T10:08:54;96868.47;;;11.49
79089;BMP280;68489;50.286;9.452;2023-11-19T10:11:20;96861.53;;;11.51
79089;BMP280;68489;50.286;9.452;2023-11-19T10:13:46;96856.78;;;11.46
79089;BMP280;68489;50.286;9.452;2023-11-19T10:16:12;96867.13;;;11.53
79089;BMP280;68489;50.286;9.452;2023-11-19T10:18:44;96869.88;;;11.68
79089;BMP280;68489;50.286;9.452;2023-11-19T10:21:12;96868.84;;;11.66
79089;BMP280;68489;50.286;9.452;2023-11-19T10:23:55;96866.50;;;11.58
79089;BMP280;68489;50.286;9.452;2023-11-19T10:26:26;96847.88;;;11.58
79089;BMP280;68489;50.286;9.452;2023-11-19T10:28:51;96846.66;;;11.59
79089;BMP280;68489;50.286;9.452;2023-11-19T10:31:18;96840.50;;;11.53
79089;BMP280;68489;50.286;9.452;2023-11-19T10:33:44;96846.56;;;11.54
79089;BMP280;68489;50.286;9.452;2023-11-19T10:36:11;96853.84;;;11.44
79089;BMP280;68489;50.286;9.452;2023-11-19T10:38:38;96844.69;;;11.45
79089;BMP280;68489;50.286;9.452;2023-11-19T10:41:03;96848.81;;;11.46
79089;BMP280;68489;50.286;9.452;2023-11-19T10:43:30;96839.34;;;11.45
79089;BMP280;68489;50.286;9.452;2023-11-19T10:46:09;96835.66;;;11.43
79089;BMP280;68489;50.286;9.452;2023-11-19T10:48:35;96820.34;;;11.37
79089;BMP280;68489;50.286;9.452;2023-11-19T10:51:01;96826.63;;;11.40
79089;BMP280;68489;50.286;9.452;2023-11-19T10:53:28;96825.91;;;11.39
79089;BMP280;68489;50.286;9.452;2023-11-19T10:55:57;96816.28;;;11.42
79089;BMP280;68489;50.286;9.452;2023-11-19T10:58:24;96809.19;;;11.39
79089;BMP280;68489;50.286;9.452;2023-11-19T11:01:01;96808.59;;;11.44
79089;BMP280;68489;50.286;9.452;2023-11-19T11:03:32;96805.94;;;11.44
79089;BMP280;68489;50.286;9.452;2023-11-19T11:06:03;96822.34;;;11.43
79089;BMP280;68489;50.286;9.452;2023-11-19T11:08:30;96804.19;;;11.41
79089;BMP280;68489;50.286;9.452;2023-11-19T11:10:55;96812.16;;;11.41
79089;BMP280;68489;50.286;9.452;2023-11-19T11:13:23;96788.94;;;11.42
79089;BMP280;68489;50.286;9.452;2023-11-19T11:15:50;96805.34;;;11.40
79089;BMP280;68489;50.286;9.452;2023-11-19T11:18:15;96812.59;;;11.39
79089;BMP280;68489;50.286;9.452;2023-11-19T11:20:44;96810.97;;;11.42
79089;BMP280;68489;50.286;9.452;2023-11-19T11:23:34;96830.91;;;11.47
79089;BMP280;68489;50.286;9.452;2023-11-19T11:28:49;96810.47;;;11.53
79089;BMP280;68489;50.286;9.452;2023-11-19T11:37:11;96818.19;;;11.75
79089;BMP280;68489;50.286;9.452;2023-11-19T11:39:41;96812.78;;;11.84
79089;BMP280;68489;50.286;9.452;2023-11-19T11:50:11;96815.69;;;11.71
79089;BMP280;68489;50.286;9.452;2023-11-19T11:55:28;96837.22;;;11.58
79089;BMP280;68489;50.286;9.452;2023-11-19T11:57:54;96831.78;;;11.53
79089;BMP280;68489;50.286;9.452;2023-11-19T12:02:55;96821.63;;;11.42
79089;BMP280;68489;50.286;9.452;2023-11-19T12:05:21;96816.88;;;11.46
79089;BMP280;68489;50.286;9.452;2023-11-19T12:07:55;96816.59;;;11.44
79089;BMP280;68489;50.286;9.452;2023-11-19T12:10:20;96812.72;;;11.45
79089;BMP280;68489;50.286;9.452;2023-11-19T12:12:47;96816.75;;;11.41
79089;BMP280;68489;50.286;9.452;2023-11-19T12:15:12;96812.78;;;11.36
79089;BMP280;68489;50.286;9.452;2023-11-19T12:17:43;96824.63;;;11.35
79089;BMP280;68489;50.286;9.452;2023-11-19T12:20:12;96808.66;;;11.35
79089;BMP280;68489;50.286;9.452;2023-11-19T12:22:38;96816.66;;;11.35
79089;BMP280;68489;50.286;9.452;2023-11-19T12:25:05;96810.84;;;11.36
79089;BMP280;68489;50.286;9.452;2023-11-19T12:27:32;96801.84;;;11.34
79089;BMP280;68489;50.286;9.452;2023-11-19T12:29:59;96801.56;;;11.32
79089;BMP280;68489;50.286;9.452;2023-11-19T12:32:24;96810.97;;;11.42
79089;BMP280;68489;50.286;9.452;2023-11-19T12:34:50;96790.81;;;11.50
79089;BMP280;68489;50.286;9.452;2023-11-19T12:37:15;96797.44;;;11.55
79089;BMP280;68489;50.286;9.452;2023-11-19T12:39:40;96789.09;;;11.62
79089;BMP280;68489;50.286;9.452;2023-11-19T12:42:05;96786.00;;;11.63
79089;BMP280;68489;50.286;9.452;2023-11-19T12:44:31;96785.59;;;11.56
79089;BMP280;68489;50.286;9.452;2023-11-19T12:47:04;96785.19;;;11.48
79089;BMP280;68489;50.286;9.452;2023-11-19T12:49:30;96785.38;;;11.45
79089;BMP280;68489;50.286;9.452;2023-11-19T12:51:55;96789.38;;;11.40
79089;BMP280;68489;50.286;9.452;2023-11-19T12:54:32;96793.13;;;11.33
79089;BMP280;68489;50.286;9.452;2023-11-19T12:56:57;96784.47;;;11.24
79089;BMP280;68489;50.286;9.452;2023-11-19T12:59:22;96790.25;;;11.22
79089;BMP280;68489;50.286;9.452;2023-11-19T13:01:57;96787.84;;;11.24
79089;BMP280;68489;50.286;9.452;2023-11-19T13:04:23;96787.69;;;11.28
79089;BMP280;68489;50.286;9.452;2023-11-19T13:06:49;96777.66;;;11.23
79089;BMP280;68489;50.286;9.452;2023-11-19T13:09:22;96781.78;;;11.24
79089;BMP280;68489;50.286;9.452;2023-11-19T13:11:49;96774.13;;;11.17
79089;BMP280;68489;50.286;9.452;2023-11-19T13:14:14;96773.69;;;11.18
79089;BMP280;68489;50.286;9.452;2023-11-19T13:16:39;96780.91;;;11.18
79089;BMP280;68489;50.286;9.452;2023-11-19T13:19:05;96778.44;;;11.14
79089;BMP280;68489;50.286;9.452;2023-11-19T13:21:31;96778.88;;;11.12
79089;BMP280;68489;50.286;9.452;2023-11-19T13:23:56;96770.72;;;11.16
79089;BMP280;68489;50.286;9.452;2023-11-19T13:26:22;96764.81;;;11.21
79089;BMP280;68489;50.286;9.452;2023-11-19T13:28:47;96774.38;;;11.28
79089;BMP280;68489;50.286;9.452;2023-11-19T13:31:12;96768.63;;;11.29
79089;BMP280;68489;50.286;9.452;2023-11-19T13:33:38;96792.22;;;11.36
79089;BMP280;68489;50.286;9.452;2023-11-19T13:36:04;96778.22;;;11.51
79089;BMP280;68489;50.286;9.452;2023-11-19T13:38:36;96771.94;;;11.63
79089;BMP280;68489;50.286;9.452;2023-11-19T13:41:05;96760.72;;;11.59
79089;BMP280;68489;50.286;9.452;2023-11-19T13:43:30;96758.88;;;11.50
79089;BMP280;68489;50.286;9.452;2023-11-19T13:45:56;96749.13;;;11.47
79089;BMP280;68489;50.286;9.452;2023-11-19T13:48:23;96743.53;;;11.45
79089;BMP280;68489;50.286;9.452;2023-11-19T13:50:48;96750.38;;;11.37
79089;BMP280;68489;50.286;9.452;2023-11-19T13:53:14;96746.44;;;11.23
79089;BMP280;68489;50.286;9.452;2023-11-19T13:55:39;96743.84;;;11.14
79089;BMP280;68489;50.286;9.452;2023-11-19T13:58:04;96750.22;;;11.07
79089;BMP280;68489;50.286;9.452;2023-11-19T14:00:29;96741.84;;;11.00
79089;BMP280;68489;50.286;9.452;2023-11-19T14:02:55;96741.72;;;10.94
79089;BMP280;68489;50.286;9.452;2023-11-19T14:05:20;96737.56;;;10.93
79089;BMP280;68489;50.286;9.452;2023-11-19T14:07:45;96739.78;;;10.95
79089;BMP280;68489;50.286;9.452;2023-11-19T14:10:14;96744.50;;;11.00
79089;BMP280;68489;50.286;9.452;2023-11-19T14:12:40;96735.63;;;11.03
79089;BMP280;68489;50.286;9.452;2023-11-19T14:15:06;96710.78;;;11.06
79089;BMP280;68489;50.286;9.452;2023-11-19T14:17:33;96714.75;;;11.10
79089;BMP280;68489;50.286;9.452;2023-11-19T14:19:59;96720.03;;;11.20
79089;BMP280;68489;50.286;9.452;2023-11-19T14:22:24;96714.50;;;11.23
79089;BMP280;68489;50.286;9.452;2023-11-19T14:24:50;96714.06;;;11.25
79089;BMP280;68489;50.286;9.452;2023-11-19T14:27:15;96722.72;;;11.34
79089;BMP280;68489;50.286;9.452;2023-11-19T14:29:42;96728.34;;;11.36